sensor_id;sensor_type;location;lat;lon;timestamp;pressure;altitude;pressure_sealevel;temperature;humidity
27805;BME280;15183;51.350;11.102;2023-04-08T00:00:36;100508.47;;;10.99;53.90
27805;BME280;15183;51.350;11.102;2023-04-08T00:03:03;100520.28;;;11.03;53.82
27805;BME280;15183;51.350;11.102;2023-04-08T00:05:29;100463.38;;;10.60;53.98
27805;BME280;15183;51.350;11.102;2023-04-08T00:07:56;100531.69;;;11.04;54.35
27805;BME280;15183;51.350;11.102;2023-04-08T00:10:22;100530.47;;;11.06;54.49
27805;BME280;15183;51.350;11.102;2023-04-08T00:12:50;100505.63;;;10.94;54.52
27805;BME280;15183;51.350;11.102;2023-04-08T00:15:16;100497.06;;;10.92;54.67
27805;BME280;15183;51.350;11.102;2023-04-08T00:17:43;100534.16;;;11.05;54.94
27805;BME280;15183;51.350;11.102;2023-04-08T00:20:10;100518.06;;;11.00;54.81
27805;BME280;15183;51.350;11.102;2023-04-08T00:22:37;100514.78;;;10.98;54.88
27805;BME280;15183;51.350;11.102;2023-04-08T00:25:04;100523.72;;;11.04;55.38
27805;BME280;15183;51.350;11.102;2023-04-08T00:27:34;100520.72;;;11.00;55.34
27805;BME280;15183;51.350;11.102;2023-04-08T00:30:01;100528.00;;;11.05;55.13
27805;BME280;15183;51.350;11.102;2023-04-08T00:32:28;100523.16;;;10.95;55.28
27805;BME280;15183;51.350;11.102;2023-04-08T00:34:55;100529.47;;;10.94;55.32
27805;BME280;15183;51.350;11.102;2023-04-08T00:37:21;100534.41;;;10.90;55.50
27805;BME280;15183;51.350;11.102;2023-04-08T00:39:48;100529.72;;;10.85;55.49
27805;BME280;15183;51.350;11.102;2023-04-08T00:42:15;100525.06;;;10.81;55.50
27805;BME280;15183;51.350;11.102;2023-04-08T00:44:41;100518.78;;;10.68;55.38
27805;BME280;15183;51.350;11.102;2023-04-08T00:47:14;100520.03;;;10.66;55.67
27805;BME280;15183;51.350;11.102;2023-04-08T00:49:42;100500.28;;;10.48;55.95
27805;BME280;15183;51.350;11.102;2023-04-08T00:52:09;100517.81;;;10.49;56.08
27805;BME280;15183;51.350;11.102;2023-04-08T00:54:36;100525.16;;;10.47;56.26
27805;BME280;15183;51.350;11.102;2023-04-08T00:57:05;100520.84;;;10.39;56.51
27805;BME280;15183;51.350;11.102;2023-04-08T00:59:32;100516.41;;;10.40;56.37
27805;BME280;15183;51.350;11.102;2023-04-08T01:07:47;100511.91;;;10.40;56.60
27805;BME280;15183;51.350;11.102;2023-04-08T01:10:29;100514.56;;;10.40;56.69
27805;BME280;15183;51.350;11.102;2023-04-08T01:13:00;100506.63;;;10.34;56.85
27805;BME280;15183;51.350;11.102;2023-04-08T01:15:30;100517.84;;;10.42;57.17
27805;BME280;15183;51.350;11.102;2023-04-08T01:17:59;100503.16;;;10.40;56.90
27805;BME280;15183;51.350;11.102;2023-04-08T01:20:27;100506.41;;;10.42;56.75
27805;BME280;15183;51.350;11.102;2023-04-08T01:26:01;100505.41;;;10.16;56.53
27805;BME280;15183;51.350;11.102;2023-04-08T01:28:29;100510.28;;;10.19;57.06
27805;BME280;15183;51.350;11.102;2023-04-08T01:30:58;100512.94;;;10.19;57.30
27805;BME280;15183;51.350;11.102;2023-04-08T01:33:27;100480.59;;;10.04;57.31
27805;BME280;15183;51.350;11.102;2023-04-08T01:35:55;100508.25;;;10.21;57.44
27805;BME280;15183;51.350;11.102;2023-04-08T01:38:24;100512.34;;;10.24;57.26
27805;BME280;15183;51.350;11.102;2023-04-08T01:40:52;100510.72;;;10.30;57.41
27805;BME280;15183;51.350;11.102;2023-04-08T01:43:21;100527.19;;;10.32;57.63
27805;BME280;15183;51.350;11.102;2023-04-08T01:45:47;100519.47;;;10.23;57.88
27805;BME280;15183;51.350;11.102;2023-04-08T01:48:15;100506.66;;;10.07;57.65
27805;BME280;15183;51.350;11.102;2023-04-08T01:50:42;100532.09;;;10.14;57.59
27805;BME280;15183;51.350;11.102;2023-04-08T01:53:10;100499.94;;;9.97;57.88
27805;BME280;15183;51.350;11.102;2023-04-08T01:55:39;100501.16;;;9.95;58.00
27805;BME280;15183;51.350;11.102;2023-04-08T01:58:06;100512.16;;;9.98;58.29
27805;BME280;15183;51.350;11.102;2023-04-08T02:00:34;100513.78;;;9.99;58.02
27805;BME280;15183;51.350;11.102;2023-04-08T02:03:02;100526.63;;;10.03;58.23
27805;BME280;15183;51.350;11.102;2023-04-08T02:05:30;100527.03;;;9.99;58.25
27805;BME280;15183;51.350;11.102;2023-04-08T02:07:57;100449.25;;;9.47;58.10
27805;BME280;15183;51.350;11.102;2023-04-08T02:10:23;100527.03;;;9.99;58.67
27805;BME280;15183;51.350;11.102;2023-04-08T02:12:49;100510.94;;;9.94;58.71
27805;BME280;15183;51.350;11.102;2023-04-08T02:15:16;100472.44;;;9.65;58.62
27805;BME280;15183;51.350;11.102;2023-04-08T02:17:51;100508.09;;;9.89;58.62
27805;BME280;15183;51.350;11.102;2023-04-08T02:20:35;100512.78;;;9.87;58.69
27805;BME280;15183;51.350;11.102;2023-04-08T02:23:13;100529.47;;;9.88;58.85
27805;BME280;15183;51.350;11.102;2023-04-08T02:25:43;100507.47;;;9.74;58.74
27805;BME280;15183;51.350;11.102;2023-04-08T02:28:11;100538.63;;;9.85;59.30
27805;BME280;15183;51.350;11.102;2023-04-08T02:30:42;100489.16;;;9.52;59.37
27805;BME280;15183;51.350;11.102;2023-04-08T02:33:10;100525.41;;;9.78;58.77
27805;BME280;15183;51.350;11.102;2023-04-08T02:35:40;100536.59;;;9.87;59.24
27805;BME280;15183;51.350;11.102;2023-04-08T02:38:08;100537.22;;;9.89;59.35
27805;BME280;15183;51.350;11.102;2023-04-08T02:40:36;100533.75;;;9.89;58.92
27805;BME280;15183;51.350;11.102;2023-04-08T02:43:03;100541.88;;;10.01;59.21
27805;BME280;15183;51.350;11.102;2023-04-08T02:45:31;100528.66;;;10.01;59.16
27805;BME280;15183;51.350;11.102;2023-04-08T02:47:59;100523.97;;;10.03;59.40
27805;BME280;15183;51.350;11.102;2023-04-08T02:50:26;100518.06;;;10.07;58.92
27805;BME280;15183;51.350;11.102;2023-04-08T02:52:52;100537.38;;;10.21;59.22
27805;BME280;15183;51.350;11.102;2023-04-08T02:55:19;100548.16;;;10.33;59.12
27805;BME280;15183;51.350;11.102;2023-04-08T02:57:46;100544.91;;;10.38;58.84
27805;BME280;15183;51.350;11.102;2023-04-08T03:00:14;100542.47;;;10.36;59.00
27805;BME280;15183;51.350;11.102;2023-04-08T03:02:41;100539.84;;;10.30;58.55
27805;BME280;15183;51.350;11.102;2023-04-08T03:05:08;100540.84;;;10.28;58.14
27805;BME280;15183;51.350;11.102;2023-04-08T03:07:35;100542.69;;;10.28;58.15
27805;BME280;15183;51.350;11.102;2023-04-08T03:10:02;100530.88;;;10.17;58.29
27805;BME280;15183;51.350;11.102;2023-04-08T03:12:28;100524.13;;;10.21;58.18
27805;BME280;15183;51.350;11.102;2023-04-08T03:14:55;100534.97;;;10.26;57.95
27805;BME280;15183;51.350;11.102;2023-04-08T03:17:21;100548.16;;;10.33;58.20
27805;BME280;15183;51.350;11.102;2023-04-08T03:19:48;100545.75;;;10.32;57.92
27805;BME280;15183;51.350;11.102;2023-04-08T03:22:14;100531.47;;;10.19;57.88
27805;BME280;15183;51.350;11.102;2023-04-08T03:24:41;100500.97;;;9.90;57.77
27805;BME280;15183;51.350;11.102;2023-04-08T03:27:07;100538.00;;;10.10;57.91
27805;BME280;15183;51.350;11.102;2023-04-08T03:29:34;100547.38;;;10.12;58.35
27805;BME280;15183;51.350;11.102;2023-04-08T03:32:00;100555.13;;;10.14;58.33
27805;BME280;15183;51.350;11.102;2023-04-08T03:34:26;100550.63;;;10.08;57.81
27805;BME280;15183;51.350;11.102;2023-04-08T03:36:53;100555.94;;;10.08;57.75
27805;BME280;15183;51.350;11.102;2023-04-08T03:39:19;100543.94;;;9.98;57.80
27805;BME280;15183;51.350;11.102;2023-04-08T03:41:46;100546.34;;;10.00;57.82
27805;BME280;15183;51.350;11.102;2023-04-08T03:44:12;100555.94;;;10.01;58.07
27805;BME280;15183;51.350;11.102;2023-04-08T03:46:38;100539.66;;;9.97;58.19
27805;BME280;15183;51.350;11.102;2023-04-08T03:49:05;100552.25;;;10.02;58.15
27805;BME280;15183;51.350;11.102;2023-04-08T03:51:32;100559.19;;;10.03;58.31
27805;BME280;15183;51.350;11.102;2023-04-08T03:53:58;100540.06;;;9.88;58.28
27805;BME280;15183;51.350;11.102;2023-04-08T03:56:25;100533.53;;;9.77;58.49
27805;BME280;15183;51.350;11.102;2023-04-08T03:58:51;100551.22;;;9.83;58.25
27805;BME280;15183;51.350;11.102;2023-04-08T04:01:18;100555.91;;;9.81;58.40
27805;BME280;15183;51.350;11.102;2023-04-08T04:03:44;100554.69;;;9.77;58.66
27805;BME280;15183;51.350;11.102;2023-04-08T04:06:10;100562.84;;;9.82;58.61
27805;BME280;15183;51.350;11.102;2023-04-08T04:08:37;100545.13;;;9.69;58.71
27805;BME280;15183;51.350;11.102;2023-04-08T04:11:03;100567.94;;;9.83;58.93
27805;BME280;15183;51.350;11.102;2023-04-08T04:13:30;100575.88;;;9.83;59.18
27805;BME280;15183;51.350;11.102;2023-04-08T04:15:56;100546.38;;;9.73;58.94
27805;BME280;15183;51.350;11.102;2023-04-08T04:18:23;100545.13;;;9.76;59.17
27805;BME280;15183;51.350;11.102;2023-04-08T04:20:49;100555.53;;;9.77;59.01
27805;BME280;15183;51.350;11.102;2023-04-08T04:23:15;100559.19;;;9.76;59.19
27805;BME280;15183;51.350;11.102;2023-04-08T04:25:42;100560.41;;;9.80;59.34
27805;BME280;15183;51.350;11.102;2023-04-08T04:28:09;100565.31;;;9.90;58.89
27805;BME280;15183;51.350;11.102;2023-04-08T04:30:37;100552.66;;;9.79;59.09
27805;BME280;15183;51.350;11.102;2023-04-08T04:33:04;100564.91;;;9.93;59.11
27805;BME280;15183;51.350;11.102;2023-04-08T04:35:31;100549.84;;;9.87;59.76
27805;BME280;15183;51.350;11.102;2023-04-08T04:37:57;100563.06;;;10.01;59.18
27805;BME280;15183;51.350;11.102;2023-04-08T04:40:24;100568.16;;;10.02;59.46
27805;BME280;15183;51.350;11.102;2023-04-08T04:42:50;100545.97;;;9.90;59.36
27805;BME280;15183;51.350;11.102;2023-04-08T04:45:16;100585.06;;;10.21;59.26
27805;BME280;15183;51.350;11.102;2023-04-08T04:47:43;100590.78;;;10.32;59.05
27805;BME280;15183;51.350;11.102;2023-04-08T04:50:09;100562.66;;;10.17;59.15
27805;BME280;15183;51.350;11.102;2023-04-08T04:52:36;100591.16;;;10.35;59.27
27805;BME280;15183;51.350;11.102;2023-04-08T04:55:03;100578.34;;;10.25;59.22
27805;BME280;15183;51.350;11.102;2023-04-08T04:57:29;100592.22;;;10.41;59.31
27805;BME280;15183;51.350;11.102;2023-04-08T04:59:56;100575.50;;;10.40;59.46
27805;BME280;15183;51.350;11.102;2023-04-08T05:02:22;100602.78;;;10.61;59.03
27805;BME280;15183;51.350;11.102;2023-04-08T05:04:48;100607.25;;;10.67;58.62
27805;BME280;15183;51.350;11.102;2023-04-08T05:07:15;100538.41;;;10.34;58.54
27805;BME280;15183;51.350;11.102;2023-04-08T05:09:41;100606.59;;;10.85;58.21
27805;BME280;15183;51.350;11.102;2023-04-08T05:12:08;100614.13;;;10.89;58.29
27805;BME280;15183;51.350;11.102;2023-04-08T05:14:34;100603.34;;;10.83;58.39
27805;BME280;15183;51.350;11.102;2023-04-08T05:17:00;100616.59;;;10.90;58.01
27805;BME280;15183;51.350;11.102;2023-04-08T05:19:27;100618.03;;;10.86;57.49
27805;BME280;15183;51.350;11.102;2023-04-08T05:21:53;100599.72;;;10.71;57.85
27805;BME280;15183;51.350;11.102;2023-04-08T05:24:20;100611.72;;;10.80;57.89
27805;BME280;15183;51.350;11.102;2023-04-08T05:26:46;100619.47;;;10.82;58.17
27805;BME280;15183;51.350;11.102;2023-04-08T05:29:17;100623.09;;;10.88;58.08
27805;BME280;15183;51.350;11.102;2023-04-08T05:31:44;100607.25;;;10.81;57.74
27805;BME280;15183;51.350;11.102;2023-04-08T05:34:10;100627.56;;;11.00;57.75
27805;BME280;15183;51.350;11.102;2023-04-08T05:36:37;100618.22;;;10.91;57.61
27805;BME280;15183;51.350;11.102;2023-04-08T05:39:03;100611.06;;;10.92;57.22
27805;BME280;15183;51.350;11.102;2023-04-08T05:41:30;100608.41;;;10.98;57.38
27805;BME280;15183;51.350;11.102;2023-04-08T05:43:56;100627.94;;;11.11;57.56
27805;BME280;15183;51.350;11.102;2023-04-08T05:46:22;100634.69;;;11.13;57.39
27805;BME280;15183;51.350;11.102;2023-04-08T05:48:49;100649.97;;;11.18;57.33
27805;BME280;15183;51.350;11.102;2023-04-08T05:51:15;100631.63;;;11.10;56.97
27805;BME280;15183;51.350;11.102;2023-04-08T05:53:47;100610.63;;;11.02;57.40
27805;BME280;15183;51.350;11.102;2023-04-08T05:56:14;100618.41;;;11.03;57.66
27805;BME280;15183;51.350;11.102;2023-04-08T05:58:40;100638.53;;;11.24;57.27
27805;BME280;15183;51.350;11.102;2023-04-08T06:01:06;100651.75;;;11.31;57.51
27805;BME280;15183;51.350;11.102;2023-04-08T06:03:33;100649.69;;;11.33;57.20
27805;BME280;15183;51.350;11.102;2023-04-08T06:05:59;100628.34;;;11.21;57.15
27805;BME280;15183;51.350;11.102;2023-04-08T06:08:26;100642.34;;;11.35;57.18
27805;BME280;15183;51.350;11.102;2023-04-08T06:10:52;100655.81;;;11.40;57.46
27805;BME280;15183;51.350;11.102;2023-04-08T06:13:19;100651.91;;;11.36;57.56
27805;BME280;15183;51.350;11.102;2023-04-08T06:15:47;100658.22;;;11.42;57.58
27805;BME280;15183;51.350;11.102;2023-04-08T06:18:16;100649.66;;;11.40;56.88
27805;BME280;15183;51.350;11.102;2023-04-08T06:20:43;100651.91;;;11.43;57.28
27805;BME280;15183;51.350;11.102;2023-04-08T06:23:09;100635.19;;;11.36;57.07
27805;BME280;15183;51.350;11.102;2023-04-08T06:25:36;100663.50;;;11.55;56.91
27805;BME280;15183;51.350;11.102;2023-04-08T06:28:02;100655.75;;;11.54;56.95
27805;BME280;15183;51.350;11.102;2023-04-08T06:30:28;100646.75;;;11.55;56.59
27805;BME280;15183;51.350;11.102;2023-04-08T06:32:55;100653.00;;;11.67;56.82
27805;BME280;15183;51.350;11.102;2023-04-08T06:35:21;100658.50;;;11.72;57.20
27805;BME280;15183;51.350;11.102;2023-04-08T06:37:48;100642.47;;;11.54;56.79
27805;BME280;15183;51.350;11.102;2023-04-08T06:40:14;100680.03;;;11.90;56.50
27805;BME280;15183;51.350;11.102;2023-04-08T06:42:41;100695.34;;;12.01;56.71
27805;BME280;15183;51.350;11.102;2023-04-08T06:45:10;100674.97;;;11.88;56.64
27805;BME280;15183;51.350;11.102;2023-04-08T06:47:36;100698.81;;;12.01;56.76
27805;BME280;15183;51.350;11.102;2023-04-08T06:50:03;100684.56;;;11.89;56.40
27805;BME280;15183;51.350;11.102;2023-04-08T06:52:29;100696.63;;;11.85;56.29
27805;BME280;15183;51.350;11.102;2023-04-08T06:54:56;100691.00;;;11.68;56.25
27805;BME280;15183;51.350;11.102;2023-04-08T06:57:22;100705.91;;;11.62;56.55
27805;BME280;15183;51.350;11.102;2023-04-08T06:59:49;100674.81;;;11.31;56.66
27805;BME280;15183;51.350;11.102;2023-04-08T07:02:15;100709.50;;;11.36;57.06
27805;BME280;15183;51.350;11.102;2023-04-08T07:04:42;100706.25;;;11.27;56.75
27805;BME280;15183;51.350;11.102;2023-04-08T07:07:08;100689.56;;;11.06;57.47
27805;BME280;15183;51.350;11.102;2023-04-08T07:09:34;100711.16;;;11.17;57.76
27805;BME280;15183;51.350;11.102;2023-04-08T07:12:02;100691.19;;;11.07;57.46
27805;BME280;15183;51.350;11.102;2023-04-08T07:14:30;100700.38;;;11.11;57.14
27805;BME280;15183;51.350;11.102;2023-04-08T07:16:56;100716.84;;;11.27;57.88
27805;BME280;15183;51.350;11.102;2023-04-08T07:19:22;100694.66;;;11.14;57.60
27805;BME280;15183;51.350;11.102;2023-04-08T07:21:49;100702.00;;;11.12;57.62
27805;BME280;15183;51.350;11.102;2023-04-08T07:24:17;100720.34;;;11.14;57.74
27805;BME280;15183;51.350;11.102;2023-04-08T07:26:44;100716.28;;;11.05;57.85
27805;BME280;15183;51.350;11.102;2023-04-08T07:29:10;100719.34;;;11.08;57.80
27805;BME280;15183;51.350;11.102;2023-04-08T07:31:37;100716.50;;;11.03;57.80
27805;BME280;15183;51.350;11.102;2023-04-08T07:34:03;100671.28;;;10.71;57.61
27805;BME280;15183;51.350;11.102;2023-04-08T07:36:30;100697.75;;;10.78;58.25
27805;BME280;15183;51.350;11.102;2023-04-08T07:38:56;100732.59;;;10.95;57.86
27805;BME280;15183;51.350;11.102;2023-04-08T07:41:23;100708.75;;;10.75;58.02
27805;BME280;15183;51.350;11.102;2023-04-08T07:43:49;100742.63;;;10.86;58.13
27805;BME280;15183;51.350;11.102;2023-04-08T07:46:16;100728.13;;;10.68;58.13
27805;BME280;15183;51.350;11.102;2023-04-08T07:48:42;100696.56;;;10.47;58.40
27805;BME280;15183;51.350;11.102;2023-04-08T07:51:09;100749.16;;;10.90;58.63
27805;BME280;15183;51.350;11.102;2023-04-08T07:53:35;100726.72;;;10.79;58.11
27805;BME280;15183;51.350;11.102;2023-04-08T07:56:02;100749.53;;;10.94;58.50
27805;BME280;15183;51.350;11.102;2023-04-08T07:58:31;100716.13;;;10.79;58.37
27805;BME280;15183;51.350;11.102;2023-04-08T08:00:58;100734.47;;;10.88;58.51
27805;BME280;15183;51.350;11.102;2023-04-08T08:03:24;100736.09;;;10.95;58.48
27805;BME280;15183;51.350;11.102;2023-04-08T08:05:51;100721.41;;;10.93;58.83
27805;BME280;15183;51.350;11.102;2023-04-08T08:08:17;100743.00;;;11.10;58.69
27805;BME280;15183;51.350;11.102;2023-04-08T08:10:43;100737.09;;;11.14;58.49
27805;BME280;15183;51.350;11.102;2023-04-08T08:13:10;100749.94;;;11.11;58.56
27805;BME280;15183;51.350;11.102;2023-04-08T08:15:40;100753.63;;;11.03;59.20
27805;BME280;15183;51.350;11.102;2023-04-08T08:18:06;100760.38;;;10.99;59.11
27805;BME280;15183;51.350;11.102;2023-04-08T08:20:34;100741.59;;;10.87;59.13
27805;BME280;15183;51.350;11.102;2023-04-08T08:23:01;100735.91;;;10.90;59.07
27805;BME280;15183;51.350;11.102;2023-04-08T08:25:27;100750.16;;;11.09;59.16
27805;BME280;15183;51.350;11.102;2023-04-08T08:27:54;100753.59;;;11.23;59.43
27805;BME280;15183;51.350;11.102;2023-04-08T08:30:20;100723.41;;;11.18;59.32
27805;BME280;15183;51.350;11.102;2023-04-08T08:32:47;100724.63;;;11.28;59.44
27805;BME280;15183;51.350;11.102;2023-04-08T08:35:13;100767.97;;;11.68;59.29
27805;BME280;15183;51.350;11.102;2023-04-08T08:37:40;100726.56;;;11.60;59.13
27805;BME280;15183;51.350;11.102;2023-04-08T08:40:08;100755.41;;;11.95;58.82
27805;BME280;15183;51.350;11.102;2023-04-08T08:42:34;100760.66;;;12.15;58.93
27805;BME280;15183;51.350;11.102;2023-04-08T08:45:02;100749.22;;;12.15;59.01
27805;BME280;15183;51.350;11.102;2023-04-08T08:47:30;100755.44;;;12.34;58.83
27805;BME280;15183;51.350;11.102;2023-04-08T08:49:56;100772.28;;;12.53;58.76
27805;BME280;15183;51.350;11.102;2023-04-08T08:52:23;100741.66;;;12.44;58.54
27805;BME280;15183;51.350;11.102;2023-04-08T08:54:57;100745.19;;;12.63;58.32
27805;BME280;15183;51.350;11.102;2023-04-08T08:57:24;100756.28;;;12.85;58.21
27805;BME280;15183;51.350;11.102;2023-04-08T08:59:50;100770.44;;;13.05;58.02
27805;BME280;15183;51.350;11.102;2023-04-08T09:02:25;100786.94;;;13.13;58.17
27805;BME280;15183;51.350;11.102;2023-04-08T09:05:03;100751.16;;;13.09;58.35
27805;BME280;15183;51.350;11.102;2023-04-08T09:07:34;100780.94;;;13.43;58.62
27805;BME280;15183;51.350;11.102;2023-04-08T09:10:02;100733.16;;;13.30;58.03
27805;BME280;15183;51.350;11.102;2023-04-08T09:12:29;100761.19;;;13.70;57.54
27805;BME280;15183;51.350;11.102;2023-04-08T09:15:07;100785.91;;;13.96;57.60
27805;BME280;15183;51.350;11.102;2023-04-08T09:17:37;100772.31;;;14.16;57.43
27805;BME280;15183;51.350;11.102;2023-04-08T09:20:09;100760.28;;;14.25;57.18
27805;BME280;15183;51.350;11.102;2023-04-08T09:23:00;100781.03;;;14.66;56.83
27805;BME280;15183;51.350;11.102;2023-04-08T09:25:29;100798.91;;;14.77;56.60
27805;BME280;15183;51.350;11.102;2023-04-08T09:27:55;100782.41;;;14.56;56.91
27805;BME280;15183;51.350;11.102;2023-04-08T09:30:26;100803.53;;;14.70;56.61
27805;BME280;15183;51.350;11.102;2023-04-08T09:32:56;100738.97;;;14.25;56.36
27805;BME280;15183;51.350;11.102;2023-04-08T09:35:24;100774.38;;;14.44;56.50
27805;BME280;15183;51.350;11.102;2023-04-08T09:37:50;100799.94;;;14.64;56.46
27805;BME280;15183;51.350;11.102;2023-04-08T09:40:18;100766.03;;;14.41;56.43
27805;BME280;15183;51.350;11.102;2023-04-08T09:42:46;100812.63;;;14.81;56.46
27805;BME280;15183;51.350;11.102;2023-04-08T09:45:17;100813.22;;;14.95;56.24
27805;BME280;15183;51.350;11.102;2023-04-08T09:48:06;100812.41;;;15.06;55.73
27805;BME280;15183;51.350;11.102;2023-04-08T09:50:46;100800.69;;;14.95;55.48
27805;BME280;15183;51.350;11.102;2023-04-08T09:53:47;100806.16;;;14.88;55.16
27805;BME280;15183;51.350;11.102;2023-04-08T09:56:17;100809.63;;;15.01;56.22
27805;BME280;15183;51.350;11.102;2023-04-08T09:58:58;100796.41;;;15.06;55.46
27805;BME280;15183;51.350;11.102;2023-04-08T10:01:38;100805.00;;;15.08;54.99
27805;BME280;15183;51.350;11.102;2023-04-08T10:04:11;100794.09;;;14.98;55.26
27805;BME280;15183;51.350;11.102;2023-04-08T10:06:40;100782.81;;;14.84;55.08
27805;BME280;15183;51.350;11.102;2023-04-08T10:09:06;100816.38;;;14.92;54.96
27805;BME280;15183;51.350;11.102;2023-04-08T10:11:34;100800.28;;;14.68;55.18
27805;BME280;15183;51.350;11.102;2023-04-08T10:14:01;100809.66;;;14.58;55.12
27805;BME280;15183;51.350;11.102;2023-04-08T10:16:28;100793.34;;;14.36;55.24
27805;BME280;15183;51.350;11.102;2023-04-08T10:18:55;100796.34;;;14.28;55.26
27805;BME280;15183;51.350;11.102;2023-04-08T10:21:39;100815.09;;;14.21;54.98
27805;BME280;15183;51.350;11.102;2023-04-08T10:24:10;100825.69;;;14.09;55.43
27805;BME280;15183;51.350;11.102;2023-04-08T10:26:44;100816.09;;;13.89;55.20
27805;BME280;15183;51.350;11.102;2023-04-08T10:31:49;100838.00;;;13.73;55.38
27805;BME280;15183;51.350;11.102;2023-04-08T10:34:18;100810.81;;;13.45;55.92
27805;BME280;15183;51.350;11.102;2023-04-08T10:36:46;100839.53;;;13.43;55.99
27805;BME280;15183;51.350;11.102;2023-04-08T10:39:13;100841.41;;;13.36;56.05
27805;BME280;15183;51.350;11.102;2023-04-08T10:41:46;100813.06;;;12.98;55.97
27805;BME280;15183;51.350;11.102;2023-04-08T10:44:17;100776.63;;;12.73;56.54
27805;BME280;15183;51.350;11.102;2023-04-08T10:46:45;100821.72;;;12.86;56.56
27805;BME280;15183;51.350;11.102;2023-04-08T10:49:12;100833.66;;;12.77;56.68
27805;BME280;15183;51.350;11.102;2023-04-08T10:51:39;100815.41;;;12.55;56.88
27805;BME280;15183;51.350;11.102;2023-04-08T10:54:09;100856.44;;;12.66;57.09
27805;BME280;15183;51.350;11.102;2023-04-08T10:59:13;100832.72;;;12.33;57.38
27805;BME280;15183;51.350;11.102;2023-04-08T11:01:43;100842.91;;;12.36;57.62
27805;BME280;15183;51.350;11.102;2023-04-08T11:04:14;100797.50;;;12.05;57.48
27805;BME280;15183;51.350;11.102;2023-04-08T11:06:42;100860.91;;;12.34;57.40
27805;BME280;15183;51.350;11.102;2023-04-08T11:09:09;100835.38;;;12.26;57.85
27805;BME280;15183;51.350;11.102;2023-04-08T11:11:36;100868.47;;;12.37;57.55
27805;BME280;15183;51.350;11.102;2023-04-08T11:14:03;100877.88;;;12.33;57.64
27805;BME280;15183;51.350;11.102;2023-04-08T11:16:31;100871.19;;;12.16;57.72
27805;BME280;15183;51.350;11.102;2023-04-08T11:18:57;100875.50;;;12.11;57.95
27805;BME280;15183;51.350;11.102;2023-04-08T11:21:24;100852.66;;;11.96;58.58
27805;BME280;15183;51.350;11.102;2023-04-08T11:23:54;100818.78;;;11.71;58.49
27805;BME280;15183;51.350;11.102;2023-04-08T11:26:21;100873.50;;;12.06;58.71
27805;BME280;15183;51.350;11.102;2023-04-08T11:28:48;100838.78;;;11.87;58.49
27805;BME280;15183;51.350;11.102;2023-04-08T11:31:17;100852.22;;;11.99;58.59
27805;BME280;15183;51.350;11.102;2023-04-08T11:33:52;100871.00;;;12.11;58.80
27805;BME280;15183;51.350;11.102;2023-04-08T11:36:19;100803.47;;;11.73;58.90
27805;BME280;15183;51.350;11.102;2023-04-08T11:38:47;100882.16;;;12.34;58.49
27805;BME280;15183;51.350;11.102;2023-04-08T11:41:14;100883.38;;;12.38;58.72
27805;BME280;15183;51.350;11.102;2023-04-08T11:43:55;100842.38;;;12.20;58.56
27805;BME280;15183;51.350;11.102;2023-04-08T11:46:22;100868.25;;;12.38;58.54
27805;BME280;15183;51.350;11.102;2023-04-08T11:49:06;100861.38;;;12.63;58.67
27805;BME280;15183;51.350;11.102;2023-04-08T11:51:35;100844.78;;;12.67;58.34
27805;BME280;15183;51.350;11.102;2023-04-08T11:54:29;100859.09;;;12.98;58.26
27805;BME280;15183;51.350;11.102;2023-04-08T11:56:57;100854.00;;;13.22;57.98
27805;BME280;15183;51.350;11.102;2023-04-08T11:59:24;100852.84;;;13.37;57.77
27805;BME280;15183;51.350;11.102;2023-04-08T12:01:51;100862.84;;;13.48;57.82
27805;BME280;15183;51.350;11.102;2023-04-08T12:04:18;100867.78;;;13.63;57.94
27805;BME280;15183;51.350;11.102;2023-04-08T12:06:44;100866.69;;;13.71;57.46
27805;BME280;15183;51.350;11.102;2023-04-08T12:09:12;100857.00;;;13.77;57.20
27805;BME280;15183;51.350;11.102;2023-04-08T12:11:39;100870.47;;;14.00;57.31
27805;BME280;15183;51.350;11.102;2023-04-08T12:14:05;100864.31;;;14.18;56.50
27805;BME280;15183;51.350;11.102;2023-04-08T12:16:35;100864.97;;;14.32;56.72
27805;BME280;15183;51.350;11.102;2023-04-08T12:19:01;100860.50;;;14.45;56.58
27805;BME280;15183;51.350;11.102;2023-04-08T12:21:27;100860.91;;;14.60;56.24
27805;BME280;15183;51.350;11.102;2023-04-08T12:23:54;100856.72;;;14.83;56.03
27805;BME280;15183;51.350;11.102;2023-04-08T12:26:20;100863.38;;;15.04;55.43
27805;BME280;15183;51.350;11.102;2023-04-08T12:28:47;100852.00;;;14.97;54.64
27805;BME280;15183;51.350;11.102;2023-04-08T12:31:13;100847.44;;;14.86;54.29
27805;BME280;15183;51.350;11.102;2023-04-08T12:33:39;100860.66;;;14.81;53.74
27805;BME280;15183;51.350;11.102;2023-04-08T12:36:06;100857.84;;;14.75;54.14
27805;BME280;15183;51.350;11.102;2023-04-08T12:38:32;100859.13;;;14.73;54.42
27805;BME280;15183;51.350;11.102;2023-04-08T12:40:59;100857.53;;;14.84;54.47
27805;BME280;15183;51.350;11.102;2023-04-08T12:43:26;100855.94;;;14.95;54.11
27805;BME280;15183;51.350;11.102;2023-04-08T12:45:52;100794.94;;;14.68;54.14
27805;BME280;15183;51.350;11.102;2023-04-08T12:48:18;100840.53;;;15.21;53.88
27805;BME280;15183;51.350;11.102;2023-04-08T12:50:45;100855.84;;;15.49;54.01
27805;BME280;15183;51.350;11.102;2023-04-08T12:53:14;100860.16;;;15.74;53.71
27805;BME280;15183;51.350;11.102;2023-04-08T12:55:40;100808.56;;;15.49;52.46
27805;BME280;15183;51.350;11.102;2023-04-08T12:58:07;100804.16;;;15.55;53.13